• Join FlightAware (Why Join?)
  • Login
  • US Flag 
05:13PM EDT


 

Airport Tracker/Info


-or-


 

Live Flight TrackerFlight Track Log ✈ SKW5564 ✈ 04-Jul-2013 ✈ KDEN - KLNK

Flight Track Log - Related Links

Times and Time Zones

All times are in EDT time to prevent confusion due to time zone crossing. See the SKW5564 flight status page for this flight to view local times or setup timezone preferences in your user account.

Time Position Orientation Groundspeed Altitude Reporting Facility
EDT Latitude Longitude Course Direction KTS MPH feet Rate Location/Type
06:31PM 39.9415 -103.0811 81° East  Level FlightAware Approximate
06:32PM 39.9601 -102.9232 81° East  Level FlightAware Approximate
06:33PM 39.9793 -102.7654 81° East  Level FlightAware Approximate
06:34PM 39.9961 -102.6071 82° East  Level FlightAware Approximate
06:35PM 40.0119 -102.4485 83° East  Level FlightAware Approximate
06:36PM 40.0304 -102.2905 81° East  Level FlightAware Approximate
06:37PM 40.0474 -102.1328 78° East  Level FlightAware Approximate
06:38PM 40.0667 -101.9755 90° East  Level FlightAware Approximate
06:39PM 40.0746 -101.8163 81° East  Level FlightAware Approximate
06:40PM 40.0932 -101.6581 81° East  Level FlightAware Approximate
06:41PM 40.1073 -101.4991 85° East  Level FlightAware Approximate
06:42PM 40.1211 -101.3402 78° East  Level FlightAware Approximate
06:43PM 40.1472 -101.1837 78° East  Level FlightAware Approximate
06:44PM 40.1624 -101.0247 83° East  Level FlightAware Approximate
06:45PM 40.1762 -100.8655 84° East  Level FlightAware Approximate
06:46PM 40.1897 -100.7062 84° East  Level FlightAware Approximate
06:47PM 40.2074 -100.5479 75° East  Level FlightAware Approximate
06:48PM 40.2394 -100.3931 75° East  Level FlightAware Approximate
06:49PM 40.2713 -100.2381 75° East  Level FlightAware Approximate
06:50PM 40.3029 -100.0830 75° East  Level FlightAware Approximate
06:51PM 40.3343 -99.9278 75° East  Level FlightAware Approximate
06:52PM 40.3655 -99.7724 75° East  Level FlightAware Approximate
06:53PM 40.3946 -99.6163 78° East  Level FlightAware Approximate
06:54PM 40.4208 -99.4592 78° East  Level FlightAware Approximate
06:55PM 40.4500 -99.3035 90° East  Level FlightAware Approximate
06:56PM 40.4783 -99.1476 74° East  Level FlightAware Approximate
06:57PM 40.5084 -98.9917 79° East  Level FlightAware Approximate
06:58PM 40.5347 -98.8344 76° East  Level FlightAware Approximate
06:59PM 40.5621 -98.6773 78° East  Level FlightAware Approximate
07:00PM 40.5947 -98.5219 74° East  Level FlightAware Approximate
07:01PM 40.6284 -98.3668 74° East  Level FlightAware Approximate
07:02PM 40.6589 -98.2106 78° East  Level FlightAware Approximate
07:03PM 40.6839 -98.0526 78° East  Level FlightAware Approximate
07:04PM 40.7135 -97.8961 72° East  Level FlightAware Approximate
07:05PM 40.7461 -97.7405 78° East  Level FlightAware Approximate
07:06PM 40.7696 -97.5822 78° East  Level FlightAware Approximate
07:07PM 40.7960 -97.4242 78° East  Level FlightAware Approximate
07:08PM 40.8220 -97.2666 76° East  Level FlightAware Approximate
07:09PM 40.8511 -97.1094 78° East  Level FlightAware Approximate
07:10PM 40.8756 -96.9507 78° East  Level FlightAware Approximate
07:11PM 40.9000 -96.7933 90° East  Level FlightAware Approximate
07:12PM 40.8500 -96.7500 180° South  Level FlightAware Approximate
07:13PM 40.8509 -96.7591 180° South  Level Estimated
07:14PM 40.8500 -96.7500 180° South  Level FlightAware Approximate
07:15PM 40.8509 -96.7591 180° South  Level Estimated
07:16PM 40.8500 -96.7500 180° South  Level FlightAware Approximate
07:17PM 40.8509 -96.7591 180° South  Level Estimated
07:18PM 40.8500 -96.7500 180° South  Level FlightAware Approximate
07:19PM 40.8509 -96.7591 180° South  Level Estimated
07:20PM 40.8500 -96.7500 180° South  Level FlightAware Approximate
07:21PM 40.8509 -96.7591 180° South  Level Estimated
07:22PM 40.8500 -96.7500 180° South  Level FlightAware Approximate
07:23PM 40.8509 -96.7591 180° South  Level Estimated
07:24PM 40.8500 -96.7500 180° South  Level FlightAware Approximate
07:25PM 40.8509 -96.7591 180° South  Level Estimated